Time;durP1;ratioP1;P1;durP2;ratioP2;P2;SDS_P1;SDS_P2;PMS_P1;PMS_P2;Temp;Humidity;BMP_temperature;BMP_pressure;BME280_temperature;BME280_humidity;BME280_pressure;Samples;Min_cycle;Max_cycle;Signal;HPM_P1;HPM_P2
2023/03/25 00:02:19;;;;;;;4.60;2.93;;;10.00;99.90;;;;;;5056171;28;20459;-68
2023/03/25 00:04:50;;;;;;;5.17;3.00;;;10.00;99.90;;;;;;5056341;28;20509;-68
2023/03/25 00:07:18;;;;;;;3.00;2.70;;;10.00;99.90;;;;;;5057217;28;20444;-67
2023/03/25 00:09:46;;;;;;;4.73;2.60;;;9.90;99.90;;;;;;5055882;28;20487;-68
2023/03/25 00:12:15;;;;;;;4.30;2.77;;;9.80;99.90;;;;;;5055663;28;20463;-68
2023/03/25 00:14:42;;;;;;;7.37;2.43;;;9.80;99.90;;;;;;5055505;28;20538;-69
2023/03/25 00:17:09;;;;;;;2.47;2.27;;;9.70;99.90;;;;;;5055829;28;20538;-69
2023/03/25 00:19:37;;;;;;;2.73;1.93;;;9.60;99.90;;;;;;5055313;28;20508;-67
2023/03/25 00:22:04;;;;;;;4.80;2.73;;;9.60;99.90;;;;;;5054779;28;20456;-67
2023/03/25 00:24:31;;;;;;;4.37;2.17;;;9.70;99.90;;;;;;5054793;28;20520;-68
2023/03/25 00:26:59;;;;;;;4.00;2.17;;;9.60;99.90;;;;;;5054659;28;20455;-68
2023/03/25 00:29:26;;;;;;;3.23;2.47;;;9.60;99.90;;;;;;5055602;28;20554;-68
2023/03/25 00:31:53;;;;;;;4.10;2.47;;;9.60;99.90;;;;;;5056063;28;20470;-67
2023/03/25 00:34:20;;;;;;;3.57;2.43;;;9.60;99.90;;;;;;5055555;28;20461;-67
2023/03/25 00:36:46;;;;;;;3.43;2.17;;;9.50;99.90;;;;;;5054764;28;20493;-67
2023/03/25 00:39:13;;;;;;;5.97;2.20;;;9.50;99.90;;;;;;5059479;28;20533;-68
2023/03/25 00:41:42;;;;;;;3.47;2.47;;;9.50;99.90;;;;;;5055666;28;20521;-66
2023/03/25 00:44:13;;;;;;;3.43;3.00;;;9.50;99.90;;;;;;5054271;28;20520;-68
2023/03/25 00:46:40;;;;;;;2.87;1.90;;;9.40;99.90;;;;;;5055013;28;20467;-68
2023/03/25 00:49:07;;;;;;;3.40;2.40;;;9.50;99.90;;;;;;5054949;28;20483;-67
2023/03/25 00:51:34;;;;;;;2.93;1.70;;;9.40;99.90;;;;;;5054906;28;20571;-67
2023/03/25 00:54:02;;;;;;;2.77;2.37;;;9.50;99.90;;;;;;5056127;28;20465;-67
2023/03/25 00:56:30;;;;;;;4.03;1.83;;;9.50;99.90;;;;;;5054813;28;20469;-69
2023/03/25 00:58:57;;;;;;;4.47;2.27;;;9.40;99.90;;;;;;5054786;28;20542;-67
2023/03/25 01:01:27;;;;;;;4.70;2.50;;;9.40;99.90;;;;;;5056010;28;20481;-68
2023/03/25 01:03:57;;;;;;;3.73;2.03;;;9.50;99.90;;;;;;5054581;28;20470;-68
2023/03/25 01:06:28;;;;;;;5.33;2.23;;;9.50;99.90;;;;;;5054646;28;20470;-68
2023/03/25 01:08:56;;;;;;;2.93;2.13;;;9.40;99.90;;;;;;5054188;28;20463;-67
2023/03/25 01:11:25;;;;;;;2.53;2.07;;;9.40;99.90;;;;;;5054562;28;20528;-67
2023/03/25 01:13:53;;;;;;;2.23;1.60;;;9.40;99.90;;;;;;5054807;28;20789;-68
2023/03/25 01:16:20;;;;;;;3.30;1.97;;;9.40;99.90;;;;;;5054659;28;20493;-66
2023/03/25 01:18:48;;;;;;;3.60;3.10;;;9.40;99.90;;;;;;5054495;28;20454;-68
2023/03/25 01:21:15;;;;;;;2.10;1.90;;;9.40;99.90;;;;;;5054617;28;20865;-68
2023/03/25 01:23:42;;;;;;;3.13;1.90;;;9.30;99.90;;;;;;5055050;28;20456;-68
2023/03/25 01:26:09;;;;;;;3.20;1.97;;;9.30;99.90;;;;;;5054413;28;20459;-68
2023/03/25 01:28:36;;;;;;;3.10;1.67;;;9.30;99.90;;;;;;5054279;28;20586;-67
2023/03/25 01:31:04;;;;;;;3.00;2.03;;;9.30;99.90;;;;;;5054258;28;20456;-67
2023/03/25 01:33:31;;;;;;;2.80;1.80;;;9.30;99.90;;;;;;5054233;28;20455;-69
2023/03/25 01:36:00;;;;;;;3.60;1.93;;;9.30;99.90;;;;;;5054283;28;20465;-67
2023/03/25 01:38:29;;;;;;;3.07;1.83;;;9.30;99.90;;;;;;5054466;28;20470;-66
2023/03/25 01:40:56;;;;;;;4.30;2.20;;;9.20;99.90;;;;;;5054074;28;20505;-67
2023/03/25 01:43:24;;;;;;;3.30;1.63;;;9.20;99.90;;;;;;5054516;28;20747;-68
2023/03/25 01:45:51;;;;;;;2.70;1.60;;;9.20;99.90;;;;;;5054062;28;20459;-66
2023/03/25 01:48:22;;;;;;;2.50;1.73;;;9.20;99.90;;;;;;5054195;28;20447;-67
2023/03/25 01:50:55;;;;;;;3.60;1.77;;;9.20;99.90;;;;;;5054028;28;20451;-67
2023/03/25 01:53:26;;;;;;;4.27;2.17;;;9.20;99.90;;;;;;5054252;28;20469;-67
2023/03/25 01:55:53;;;;;;;5.20;1.80;;;9.20;99.90;;;;;;5056112;28;20763;-65
2023/03/25 01:58:21;;;;;;;2.30;1.77;;;9.20;99.90;;;;;;5057781;28;20470;-68
2023/03/25 02:00:50;;;;;;;3.20;1.70;;;9.10;99.90;;;;;;5057380;28;20463;-68
2023/03/25 02:03:20;;;;;;;3.40;1.90;;;9.20;99.90;;;;;;5057461;28;20465;-67
2023/03/25 02:05:53;;;;;;;6.53;1.90;;;9.20;99.90;;;;;;5057092;28;20923;-67
2023/03/25 02:08:23;;;;;;;2.20;1.60;;;9.20;99.90;;;;;;5057626;28;20525;-66
2023/03/25 02:10:51;;;;;;;3.70;1.80;;;9.10;99.90;;;;;;5057499;28;20497;-67
2023/03/25 02:13:18;;;;;;;3.70;1.90;;;9.10;99.90;;;;;;5057445;28;20454;-67
2023/03/25 02:16:04;;;;;;;2.80;1.93;;;9.20;99.90;;;;;;5057270;28;20522;-67
2023/03/25 02:18:44;;;;;;;2.77;1.63;;;9.20;99.90;;;;;;5057432;28;20522;-68
2023/03/25 02:21:35;;;;;;;4.03;2.47;;;9.20;99.90;;;;;;5057225;28;20440;-67
2023/03/25 02:24:52;;;;;;;1.90;1.70;;;9.30;99.90;;;;;;5056900;28;20443;-68
2023/03/25 02:27:27;;;;;;;2.57;1.50;;;9.30;99.90;;;;;;5057293;28;20490;-68
2023/03/25 02:30:31;;;;;;;4.87;1.70;;;9.30;99.90;;;;;;5057141;28;20540;-67
2023/03/25 02:33:27;;;;;;;3.33;1.70;;;9.30;99.90;;;;;;5057335;28;20607;-67
2023/03/25 02:36:23;;;;;;;2.10;1.90;;;9.30;99.90;;;;;;5057485;28;20931;-67
2023/03/25 02:38:55;;;;;;;5.03;1.80;;;9.40;99.90;;;;;;5056990;28;20473;-67
2023/03/25 02:41:26;;;;;;;3.60;1.70;;;9.40;99.90;;;;;;5057332;28;20432;-67
2023/03/25 02:43:57;;;;;;;3.13;2.47;;;9.40;99.90;;;;;;5057100;28;20462;-67
2023/03/25 02:46:26;;;;;;;2.53;1.40;;;9.40;99.90;;;;;;5056691;28;20479;-67
2023/03/25 02:48:58;;;;;;;2.87;1.60;;;9.40;99.90;;;;;;5056739;28;20459;-67
2023/03/25 02:51:29;;;;;;;3.00;1.60;;;9.40;99.90;;;;;;5057301;28;20443;-67
2023/03/25 02:54:04;;;;;;;2.07;1.63;;;9.40;99.90;;;;;;5057178;28;20847;-67
2023/03/25 02:56:32;;;;;;;5.73;1.93;;;9.40;99.90;;;;;;5056650;28;20538;-68
2023/03/25 02:59:01;;;;;;;3.77;1.70;;;9.40;99.90;;;;;;5057187;28;20466;-67
2023/03/25 03:01:28;;;;;;;3.20;1.77;;;9.40;99.90;;;;;;5056851;28;20868;-67
2023/03/25 03:03:55;;;;;;;4.57;1.97;;;9.40;99.90;;;;;;5057008;28;20538;-68
2023/03/25 03:06:24;;;;;;;2.63;1.87;;;9.40;99.90;;;;;;5055894;28;20466;-68
2023/03/25 03:09:06;;;;;;;1.77;1.60;;;9.30;99.90;;;;;;5055679;28;20491;-68
2023/03/25 03:11:42;;;;;;;4.40;2.20;;;9.40;99.90;;;;;;5056884;28;20556;-67
2023/03/25 03:14:27;;;;;;;5.20;1.80;;;9.40;99.90;;;;;;5056348;28;20903;-66
2023/03/25 03:17:02;;;;;;;2.87;1.70;;;9.50;99.90;;;;;;5056069;28;20474;-68
2023/03/25 03:19:37;;;;;;;2.10;1.67;;;9.60;99.90;;;;;;5056204;28;20435;-66
2023/03/25 03:22:15;;;;;;;2.27;1.60;;;9.60;99.90;;;;;;5056245;28;20434;-68
2023/03/25 03:24:47;;;;;;;3.87;1.90;;;9.60;99.90;;;;;;5056030;28;20549;-66
2023/03/25 03:27:27;;;;;;;2.63;1.57;;;9.50;99.90;;;;;;5056183;28;20482;-67
2023/03/25 03:29:57;;;;;;;3.40;1.60;;;9.40;99.90;;;;;;5055977;28;20874;-68
2023/03/25 03:32:29;;;;;;;2.40;1.70;;;9.30;99.90;;;;;;5055997;28;20453;-68
2023/03/25 03:35:00;;;;;;;2.57;2.10;;;9.10;99.90;;;;;;5057488;28;20898;-66
2023/03/25 03:37:33;;;;;;;2.57;2.00;;;9.00;99.90;;;;;;5056398;28;20454;-66
2023/03/25 03:40:03;;;;;;;2.47;1.63;;;8.90;99.90;;;;;;5056430;28;20440;-66
2023/03/25 03:42:35;;;;;;;3.00;2.13;;;8.90;99.90;;;;;;5055945;28;20465;-67
2023/03/25 03:45:07;;;;;;;2.83;2.00;;;8.80;99.90;;;;;;5055811;28;20479;-67
2023/03/25 03:47:39;;;;;;;3.20;2.50;;;8.80;99.90;;;;;;5057004;28;20458;-65
2023/03/25 03:50:10;;;;;;;5.67;2.40;;;8.80;99.90;;;;;;5055908;28;20478;-67
2023/03/25 03:52:41;;;;;;;3.37;2.30;;;8.70;99.90;;;;;;5056194;28;20526;-66
2023/03/25 03:55:13;;;;;;;2.53;1.63;;;8.80;99.90;;;;;;5055447;28;20454;-65
2023/03/25 03:57:43;;;;;;;3.80;2.20;;;8.70;99.90;;;;;;5055743;28;20523;-66
2023/03/25 04:00:15;;;;;;;2.80;1.80;;;8.70;99.90;;;;;;5055407;28;20462;-66
2023/03/25 04:02:46;;;;;;;2.33;1.93;;;8.80;99.90;;;;;;5055245;28;20440;-66
2023/03/25 04:05:16;;;;;;;7.63;2.27;;;8.70;99.90;;;;;;5055824;28;20538;-65
2023/03/25 04:07:53;;;;;;;8.27;2.20;;;8.70;99.90;;;;;;5055600;28;20862;-66
2023/03/25 04:10:28;;;;;;;4.03;2.13;;;8.60;99.90;;;;;;5055501;28;20474;-66
2023/03/25 04:12:57;;;;;;;4.17;2.27;;;8.60;99.90;;;;;;5055582;28;20467;-66
2023/03/25 04:15:24;;;;;;;5.67;1.83;;;8.70;99.90;;;;;;5055129;28;20483;-65
2023/03/25 04:17:51;;;;;;;3.93;2.40;;;8.60;99.90;;;;;;5055374;28;20517;-65
2023/03/25 04:20:23;;;;;;;3.20;1.97;;;8.60;99.90;;;;;;5055125;28;20459;-66
2023/03/25 04:22:51;;;;;;;3.87;2.17;;;8.60;99.90;;;;;;5055026;28;20454;-64
2023/03/25 04:25:20;;;;;;;4.73;1.77;;;8.60;99.90;;;;;;5055317;28;20469;-66
2023/03/25 04:27:48;;;;;;;2.40;1.80;;;8.60;99.90;;;;;;5055178;28;20459;-66
2023/03/25 04:30:17;;;;;;;2.73;1.87;;;8.60;99.90;;;;;;5054701;28;20960;-66
2023/03/25 04:32:46;;;;;;;7.80;1.97;;;8.60;99.90;;;;;;5055098;28;20498;-66
2023/03/25 04:35:13;;;;;;;5.37;2.40;;;8.60;99.90;;;;;;5054912;28;20926;-66
2023/03/25 04:37:40;;;;;;;4.60;1.97;;;8.60;99.90;;;;;;5055299;28;20839;-66
2023/03/25 04:40:08;;;;;;;6.07;1.63;;;8.60;99.90;;;;;;5055173;28;20524;-65
2023/03/25 04:42:36;;;;;;;2.53;1.80;;;8.70;99.90;;;;;;5055031;28;20455;-65
2023/03/25 04:45:05;;;;;;;2.07;1.60;;;8.70;99.90;;;;;;5055452;28;20541;-65
2023/03/25 04:47:32;;;;;;;6.83;1.63;;;8.70;99.90;;;;;;5055342;28;20569;-66
2023/03/25 04:49:59;;;;;;;3.00;1.60;;;8.70;99.90;;;;;;5054867;28;21157;-66
2023/03/25 04:52:26;;;;;;;4.03;2.00;;;8.70;99.90;;;;;;5054940;28;20867;-65
2023/03/25 04:54:52;;;;;;;3.10;1.73;;;8.70;99.90;;;;;;5054888;28;20946;-66
2023/03/25 04:57:20;;;;;;;2.93;1.50;;;8.70;99.90;;;;;;5055290;28;20550;-66
2023/03/25 04:59:46;;;;;;;3.90;1.70;;;8.70;99.90;;;;;;5054768;28;20981;-66
2023/03/25 05:02:17;;;;;;;2.63;1.50;;;8.70;99.90;;;;;;5054797;28;20462;-66
2023/03/25 05:04:46;;;;;;;4.60;1.40;;;8.70;99.90;;;;;;5055161;28;20501;-65
2023/03/25 05:07:12;;;;;;;4.70;1.80;;;8.80;99.90;;;;;;5055356;28;20455;-66
2023/03/25 05:09:39;;;;;;;6.00;1.77;;;8.80;99.90;;;;;;5055269;28;20483;-66
2023/03/25 05:12:10;;;;;;;5.73;1.47;;;8.80;99.90;;;;;;5055303;28;20455;-66
2023/03/25 05:14:37;;;;;;;3.70;1.60;;;8.80;99.90;;;;;;5054719;28;20435;-66
2023/03/25 05:17:04;;;;;;;2.90;1.30;;;8.80;99.90;;;;;;5054572;28;20903;-66
2023/03/25 05:19:33;;;;;;;2.00;1.57;;;8.80;99.90;;;;;;5054658;28;20557;-65
2023/03/25 05:22:01;;;;;;;2.33;1.30;;;8.80;99.90;;;;;;5054902;28;20455;-66
2023/03/25 05:24:28;;;;;;;2.70;1.00;;;8.80;99.90;;;;;;5054637;28;20458;-65
2023/03/25 05:26:55;;;;;;;3.90;1.50;;;8.80;99.90;;;;;;5054533;28;20469;-66
2023/03/25 05:29:22;;;;;;;4.50;2.07;;;8.80;99.90;;;;;;5054853;28;20465;-67
2023/03/25 05:31:48;;;;;;;3.10;1.40;;;8.90;99.90;;;;;;5058529;28;20566;-64
2023/03/25 05:34:16;;;;;;;2.80;1.47;;;8.90;99.90;;;;;;5058976;28;20469;-66
2023/03/25 05:36:44;;;;;;;2.17;1.20;;;8.90;99.90;;;;;;5058687;28;20455;-66
2023/03/25 05:39:11;;;;;;;2.10;1.30;;;8.90;99.90;;;;;;5058325;28;20524;-67
2023/03/25 05:41:38;;;;;;;3.03;1.20;;;8.90;99.90;;;;;;5058230;28;20454;-67
2023/03/25 05:44:05;;;;;;;2.73;1.13;;;9.00;99.90;;;;;;5058009;28;20465;-67
2023/03/25 05:46:33;;;;;;;3.23;1.17;;;9.00;99.90;;;;;;5058176;28;20827;-67
2023/03/25 05:49:00;;;;;;;3.77;1.40;;;9.00;99.90;;;;;;5057978;28;20462;-67
2023/03/25 05:51:32;;;;;;;4.20;1.40;;;9.10;99.90;;;;;;5058045;28;20565;-66
2023/03/25 05:54:00;;;;;;;3.23;1.30;;;9.10;99.90;;;;;;5057958;28;20550;-66
2023/03/25 05:56:28;;;;;;;2.20;1.03;;;9.20;99.90;;;;;;5058277;28;20461;-66
2023/03/25 05:58:55;;;;;;;3.27;1.20;;;9.20;99.90;;;;;;5058159;28;20505;-67
2023/03/25 06:01:22;;;;;;;3.43;1.27;;;9.30;99.90;;;;;;5058001;28;21002;-68
2023/03/25 06:03:49;;;;;;;5.63;1.70;;;9.30;99.90;;;;;;5058104;28;20544;-67
2023/03/25 06:06:18;;;;;;;2.60;1.07;;;9.40;99.90;;;;;;5058230;28;20466;-66
2023/03/25 06:08:45;;;;;;;2.80;1.00;;;9.30;99.90;;;;;;5058042;28;20455;-67
2023/03/25 06:11:14;;;;;;;2.50;1.37;;;9.40;99.90;;;;;;5058033;28;20493;-67
2023/03/25 06:13:48;;;;;;;3.30;1.30;;;9.40;99.90;;;;;;5057952;28;20490;-68
2023/03/25 06:16:18;;;;;;;1.90;1.00;;;9.40;99.90;;;;;;5058028;28;20573;-70
2023/03/25 06:18:49;;;;;;;2.20;1.00;;;9.50;99.90;;;;;;5058431;28;20510;-67
2023/03/25 06:21:17;;;;;;;3.43;1.20;;;9.50;99.90;;;;;;5058140;28;20497;-67
2023/03/25 06:23:44;;;;;;;4.33;1.83;;;9.40;99.90;;;;;;5057891;28;20455;-66
2023/03/25 06:26:11;;;;;;;2.43;1.00;;;9.40;99.90;;;;;;5057431;28;20465;-67
2023/03/25 06:28:39;;;;;;;3.60;1.13;;;9.40;99.90;;;;;;5057000;28;20810;-68
2023/03/25 06:31:12;;;;;;;5.70;1.20;;;9.40;99.90;;;;;;5057109;28;20475;-69
2023/03/25 06:33:40;;;;;;;2.70;1.07;;;9.40;99.90;;;;;;5057417;28;20849;-68
2023/03/25 06:36:08;;;;;;;1.80;1.00;;;9.40;99.90;;;;;;5057011;28;20537;-67
2023/03/25 06:38:34;;;;;;;1.40;0.97;;;9.40;99.90;;;;;;5057053;28;20455;-67
2023/03/25 06:41:01;;;;;;;2.97;0.90;;;9.40;99.90;;;;;;5056433;28;20459;-67
2023/03/25 06:43:28;;;;;;;1.53;0.90;;;9.40;99.90;;;;;;5056139;28;20904;-68
2023/03/25 06:45:56;;;;;;;2.57;0.90;;;9.50;99.90;;;;;;5057083;28;20469;-68
2023/03/25 06:48:23;;;;;;;1.60;1.10;;;9.50;99.90;;;;;;5057126;28;20459;-68
2023/03/25 06:50:50;;;;;;;2.23;0.93;;;9.50;99.90;;;;;;5056426;28;20981;-67
2023/03/25 06:53:17;;;;;;;1.67;0.90;;;9.60;99.90;;;;;;5056739;28;20912;-67
2023/03/25 06:55:44;;;;;;;1.50;0.90;;;9.60;99.90;;;;;;5057202;28;20551;-67
2023/03/25 06:58:11;;;;;;;2.17;0.80;;;9.70;99.90;;;;;;5056753;28;20455;-67
2023/03/25 07:00:38;;;;;;;3.03;0.90;;;9.70;99.90;;;;;;5056243;28;20546;-68
2023/03/25 07:03:06;;;;;;;2.90;0.90;;;9.70;99.90;;;;;;5056231;28;20546;-68
2023/03/25 07:05:33;;;;;;;2.00;0.80;;;9.80;99.90;;;;;;5056295;28;20466;-68
2023/03/25 07:08:00;;;;;;;1.70;1.07;;;9.80;99.90;;;;;;5056165;28;20455;-68
2023/03/25 07:10:27;;;;;;;4.17;1.37;;;9.80;99.90;;;;;;5056378;28;20479;-67
2023/03/25 07:12:54;;;;;;;2.83;0.93;;;9.80;99.90;;;;;;5056396;28;20459;-67
2023/03/25 07:15:20;;;;;;;4.20;1.27;;;9.80;99.90;;;;;;5055802;28;21003;-68
2023/03/25 07:17:48;;;;;;;2.40;1.30;;;9.80;99.90;;;;;;5056216;28;20554;-67
2023/03/25 07:20:16;;;;;;;2.63;1.20;;;9.80;99.90;;;;;;5056062;28;21015;-68
2023/03/25 07:22:44;;;;;;;2.60;1.13;;;9.80;99.90;;;;;;5056116;28;20524;-67
2023/03/25 07:25:10;;;;;;;1.73;0.90;;;9.90;99.90;;;;;;5056204;28;20502;-68
2023/03/25 07:27:37;;;;;;;1.70;0.90;;;10.00;99.90;;;;;;5056266;28;20455;-67
2023/03/25 07:30:05;;;;;;;2.13;1.20;;;10.10;99.90;;;;;;5055534;28;20459;-68
2023/03/25 07:32:32;;;;;;;1.80;1.43;;;10.10;99.90;;;;;;5055685;28;20564;-68
2023/03/25 07:34:59;;;;;;;2.27;1.00;;;10.10;99.90;;;;;;5055803;28;20455;-68
2023/03/25 07:37:27;;;;;;;2.07;1.00;;;10.20;99.90;;;;;;5055514;28;20463;-68
2023/03/25 07:39:54;;;;;;;2.13;1.00;;;10.30;99.90;;;;;;5056259;28;20465;-67
2023/03/25 07:42:21;;;;;;;3.83;1.10;;;10.30;99.90;;;;;;5055696;28;20451;-68
2023/03/25 07:44:47;;;;;;;2.33;1.10;;;10.40;99.90;;;;;;5055522;28;20459;-67
2023/03/25 07:47:14;;;;;;;4.00;1.10;;;10.50;99.90;;;;;;5055686;28;20459;-66
2023/03/25 07:49:41;;;;;;;2.37;1.20;;;10.60;99.90;;;;;;5055589;28;20559;-67
2023/03/25 07:52:08;;;;;;;2.43;1.50;;;10.60;99.90;;;;;;5055666;28;20597;-68
2023/03/25 07:54:37;;;;;;;2.10;1.03;;;10.70;99.90;;;;;;5055268;28;20899;-68
2023/03/25 07:57:04;;;;;;;2.93;1.30;;;10.70;99.90;;;;;;5055647;28;20455;-68
2023/03/25 07:59:31;;;;;;;2.63;1.13;;;10.90;99.90;;;;;;5055560;28;20455;-67
2023/03/25 08:01:57;;;;;;;1.87;1.13;;;10.90;99.90;;;;;;5055716;28;20455;-68
2023/03/25 08:04:24;;;;;;;1.47;1.00;;;11.00;99.90;;;;;;5055755;28;20463;-68
2023/03/25 08:06:51;;;;;;;3.97;1.10;;;11.10;99.90;;;;;;5055567;28;20502;-70
2023/03/25 08:09:18;;;;;;;5.30;1.30;;;11.10;99.90;;;;;;5055263;28;20455;-69
2023/03/25 08:11:48;;;;;;;2.17;1.10;;;11.10;99.90;;;;;;5054840;28;20479;-69
2023/03/25 08:14:15;;;;;;;2.80;1.03;;;11.10;99.90;;;;;;5055333;28;20454;-67
2023/03/25 08:16:41;;;;;;;4.87;1.50;;;11.10;99.90;;;;;;5054703;28;20548;-68
2023/03/25 08:19:08;;;;;;;1.87;0.97;;;11.20;99.90;;;;;;5055071;28;20458;-69
2023/03/25 08:21:35;;;;;;;2.60;1.10;;;11.30;99.90;;;;;;5055259;28;20461;-68
2023/03/25 08:24:03;;;;;;;4.77;1.43;;;11.30;99.90;;;;;;5055054;28;20791;-67
2023/03/25 08:26:30;;;;;;;3.30;0.90;;;11.30;99.90;;;;;;5055416;28;20457;-68
2023/03/25 08:29:01;;;;;;;1.50;1.00;;;11.30;99.90;;;;;;5054928;28;20461;-69
2023/03/25 08:31:37;;;;;;;6.17;1.70;;;11.30;99.90;;;;;;5054485;28;20470;-69
2023/03/25 08:34:05;;;;;;;2.70;1.43;;;11.30;99.90;;;;;;5054724;28;20457;-69
2023/03/25 08:36:32;;;;;;;5.00;1.47;;;11.30;99.90;;;;;;5054290;28;20451;-68
2023/03/25 08:39:00;;;;;;;1.63;0.90;;;11.50;99.90;;;;;;5054663;28;20465;-68
2023/03/25 08:41:27;;;;;;;3.87;1.20;;;11.50;99.90;;;;;;5054839;28;20458;-68
2023/03/25 08:43:54;;;;;;;3.20;1.30;;;11.60;99.90;;;;;;5054784;28;20488;-68
2023/03/25 08:46:22;;;;;;;1.60;0.80;;;11.60;99.90;;;;;;5054636;28;20754;-68
2023/03/25 08:48:49;;;;;;;1.20;0.90;;;11.70;99.90;;;;;;5054644;28;20857;-68
2023/03/25 08:51:15;;;;;;;4.20;1.50;;;11.80;99.90;;;;;;5054263;28;20483;-67
2023/03/25 08:53:42;;;;;;;2.40;0.80;;;11.80;99.90;;;;;;5054450;28;20463;-66
2023/03/25 08:56:10;;;;;;;3.00;1.13;;;11.80;99.90;;;;;;5054377;28;20941;-68
2023/03/25 08:58:37;;;;;;;3.20;1.00;;;11.80;99.90;;;;;;5054732;28;20469;-69
2023/03/25 09:01:05;;;;;;;1.97;1.00;;;12.00;99.90;;;;;;5053912;28;20465;-69
2023/03/25 09:03:36;;;;;;;2.80;0.90;;;11.90;99.90;;;;;;5054614;28;21002;-69
2023/03/25 09:06:04;;;;;;;1.40;0.80;;;11.90;99.90;;;;;;5056661;28;20943;-68
2023/03/25 09:08:32;;;;;;;1.30;0.80;;;11.80;99.90;;;;;;5058398;28;20454;-68
2023/03/25 09:11:00;;;;;;;2.83;0.90;;;11.60;99.90;;;;;;5058496;28;20479;-68
2023/03/25 09:13:26;;;;;;;2.80;0.77;;;11.70;99.90;;;;;;5058405;28;20455;-68
2023/03/25 09:15:53;;;;;;;1.30;0.80;;;11.80;99.90;;;;;;5058119;28;20872;-68
2023/03/25 09:18:20;;;;;;;5.73;1.17;;;12.00;99.90;;;;;;5058763;28;20806;-68
2023/03/25 09:20:50;;;;;;;1.40;0.80;;;12.10;99.90;;;;;;5058275;28;20811;-69
2023/03/25 09:23:17;;;;;;;3.30;1.20;;;12.10;99.90;;;;;;5058792;28;20740;-68
2023/03/25 09:25:45;;;;;;;1.93;1.03;;;12.10;99.90;;;;;;5058382;28;20851;-68
2023/03/25 09:28:12;;;;;;;2.23;0.90;;;12.00;99.90;;;;;;5058531;28;20942;-68
2023/03/25 09:30:39;;;;;;;1.40;1.00;;;12.00;99.90;;;;;;5058371;28;20565;-68
2023/03/25 09:33:05;;;;;;;3.00;0.90;;;12.00;99.90;;;;;;5058264;28;20519;-67
2023/03/25 09:35:32;;;;;;;2.53;1.10;;;11.80;99.90;;;;;;5057785;28;20932;-67
2023/03/25 09:38:01;;;;;;;1.60;0.90;;;11.30;99.90;;;;;;5057946;28;20459;-66
2023/03/25 09:40:28;;;;;;;2.93;1.10;;;10.30;99.90;;;;;;5058496;28;20469;-68
2023/03/25 09:43:08;;;;;;;3.10;1.20;;;9.70;99.90;;;;;;5058652;28;20534;-66
2023/03/25 09:45:37;;;;;;;2.53;1.40;;;9.50;99.90;;;;;;5058675;28;20447;-66
2023/03/25 09:48:17;;;;;;;2.00;1.30;;;9.50;99.90;;;;;;5058481;28;20465;-66
2023/03/25 09:50:45;;;;;;;2.67;1.47;;;9.60;99.90;;;;;;5057936;28;20444;-66
2023/03/25 09:53:26;;;;;;;1.60;1.10;;;9.80;99.90;;;;;;5058138;28;20483;-65
2023/03/25 09:55:54;;;;;;;2.23;1.23;;;10.00;99.90;;;;;;5058313;28;20573;-67
2023/03/25 09:58:38;;;;;;;2.83;1.40;;;10.10;99.90;;;;;;5058078;28;20546;-66
2023/03/25 10:01:19;;;;;;;2.60;1.23;;;10.40;99.90;;;;;;5058324;28;20568;-67
2023/03/25 10:03:55;;;;;;;3.47;1.30;;;10.70;99.90;;;;;;5057765;28;20454;-67
2023/03/25 10:06:25;;;;;;;1.20;0.83;;;10.90;99.90;;;;;;5057935;28;20453;-67
2023/03/25 10:09:08;;;;;;;1.30;1.10;;;11.10;99.90;;;;;;5057856;28;20542;-68
2023/03/25 10:11:45;;;;;;;3.00;1.10;;;11.30;99.90;;;;;;5057846;28;20478;-68
2023/03/25 10:14:19;;;;;;;2.73;1.20;;;11.30;99.90;;;;;;5057870;28;20787;-68
2023/03/25 10:16:58;;;;;;;4.53;1.00;;;11.30;99.90;;;;;;5057722;28;20899;-69
2023/03/25 10:19:42;;;;;;;5.10;0.93;;;11.30;99.90;;;;;;5057776;28;20975;-68
2023/03/25 10:22:16;;;;;;;3.20;1.00;;;11.30;99.90;;;;;;5057901;28;20435;-68
2023/03/25 10:24:49;;;;;;;1.23;0.90;;;11.20;99.90;;;;;;5058010;28;20577;-69
2023/03/25 10:27:22;;;;;;;1.80;0.93;;;11.40;99.90;;;;;;5058019;28;20469;-68
2023/03/25 10:29:53;;;;;;;1.40;0.90;;;11.50;99.90;;;;;;5057686;28;20443;-69
2023/03/25 10:32:31;;;;;;;1.40;0.97;;;11.60;99.90;;;;;;5057127;28;20553;-68
2023/03/25 10:35:01;;;;;;;1.40;0.90;;;11.80;99.90;;;;;;5057825;28;20482;-69
2023/03/25 10:37:32;;;;;;;1.90;1.00;;;12.00;99.90;;;;;;5056921;28;20558;-68
2023/03/25 10:40:15;;;;;;;2.13;1.00;;;12.20;99.90;;;;;;5056943;28;20439;-68
2023/03/25 10:42:50;;;;;;;2.30;0.87;;;12.40;99.90;;;;;;5057094;28;20900;-67
2023/03/25 10:45:18;;;;;;;2.63;0.83;;;12.40;99.90;;;;;;5057202;28;20446;-67
2023/03/25 10:47:47;;;;;;;1.63;0.80;;;12.30;99.90;;;;;;5057193;28;20459;-68
2023/03/25 10:50:16;;;;;;;1.70;0.90;;;12.40;99.90;;;;;;5056895;28;20490;-67
2023/03/25 10:52:44;;;;;;;2.50;1.30;;;12.30;99.90;;;;;;5057190;28;20483;-67
2023/03/25 10:55:24;;;;;;;2.97;1.60;;;12.30;99.90;;;;;;5057502;28;20558;-68
2023/03/25 10:57:51;;;;;;;2.70;1.27;;;12.30;99.90;;;;;;5057057;28;20517;-68
2023/03/25 11:00:22;;;;;;;2.40;1.00;;;12.40;99.90;;;;;;5056689;28;20547;-68
2023/03/25 11:02:50;;;;;;;3.03;1.00;;;12.60;99.90;;;;;;5057140;28;20523;-68
2023/03/25 11:05:20;;;;;;;2.77;1.40;;;12.80;99.90;;;;;;5057132;28;20455;-67
2023/03/25 11:07:51;;;;;;;2.20;1.03;;;13.00;99.90;;;;;;5057188;28;20465;-67
2023/03/25 11:10:22;;;;;;;1.40;1.00;;;13.00;99.90;;;;;;5056936;28;20489;-69
2023/03/25 11:12:51;;;;;;;2.03;1.20;;;13.00;99.90;;;;;;5056150;28;20958;-67
2023/03/25 11:15:21;;;;;;;1.83;1.10;;;12.80;99.90;;;;;;5056440;28;20479;-68
2023/03/25 11:18:00;;;;;;;2.40;1.10;;;12.70;99.90;;;;;;5056515;28;20444;-67
2023/03/25 11:20:30;;;;;;;1.87;1.00;;;12.60;99.90;;;;;;5056049;28;20443;-68
2023/03/25 11:23:05;;;;;;;5.37;1.23;;;12.60;99.90;;;;;;5056188;28;20549;-68
2023/03/25 11:25:39;;;;;;;3.33;1.10;;;12.50;99.90;;;;;;5055897;28;20957;-70
2023/03/25 11:28:12;;;;;;;3.40;1.10;;;12.60;99.90;;;;;;5055349;28;20439;-69
2023/03/25 11:31:11;;;;;;;1.50;0.80;;;12.70;99.90;;;;;;5055594;28;20444;-69
2023/03/25 11:33:39;;;;;;;2.90;1.00;;;12.50;99.90;;;;;;5055956;28;20467;-69
2023/03/25 11:36:27;;;;;;;1.10;0.93;;;12.00;99.90;;;;;;5055919;28;20459;-68
2023/03/25 11:39:00;;;;;;;1.93;0.80;;;11.50;99.90;;;;;;5055820;28;20451;-69
2023/03/25 11:41:32;;;;;;;3.00;1.03;;;11.10;99.90;;;;;;5055896;28;20541;-68
2023/03/25 11:44:00;;;;;;;1.30;0.90;;;10.60;99.90;;;;;;5055455;28;20540;-68
2023/03/25 11:46:28;;;;;;;1.93;1.00;;;10.40;99.90;;;;;;5055475;28;20462;-68
2023/03/25 11:48:55;;;;;;;2.13;1.27;;;10.20;99.90;;;;;;5055311;28;20533;-67
2023/03/25 11:51:25;;;;;;;1.37;0.90;;;10.00;99.90;;;;;;5055443;28;20735;-68
2023/03/25 11:53:57;;;;;;;1.50;1.00;;;9.90;99.90;;;;;;5055347;28;20462;-67
2023/03/25 11:56:31;;;;;;;1.90;1.00;;;9.80;99.90;;;;;;5055513;28;20797;-69
2023/03/25 11:59:00;;;;;;;1.87;1.07;;;9.70;99.90;;;;;;5055227;28;20444;-68
2023/03/25 12:01:29;;;;;;;2.03;1.40;;;9.90;99.90;;;;;;5055253;28;20575;-68
2023/03/25 12:04:11;;;;;;;1.73;1.40;;;10.10;99.90;;;;;;5054918;28;20899;-68
2023/03/25 12:06:51;;;;;;;5.47;1.83;;;10.40;99.90;;;;;;5055707;28;20449;-68
2023/03/25 12:09:18;;;;;;;1.83;1.20;;;10.70;99.90;;;;;;5054867;28;20447;-68
2023/03/25 12:11:55;;;;;;;2.60;1.40;;;11.30;99.90;;;;;;5054947;28;20465;-68
2023/03/25 12:14:33;;;;;;;2.00;1.20;;;12.10;99.90;;;;;;5055221;28;20508;-68
2023/03/25 12:17:08;;;;;;;1.60;0.90;;;12.80;99.90;;;;;;5055564;28;20465;-68
2023/03/25 12:19:47;;;;;;;3.17;0.90;;;13.20;99.90;;;;;;5055659;28;20463;-68
2023/03/25 12:22:28;;;;;;;1.60;0.70;;;13.00;99.90;;;;;;5055658;28;20497;-68
2023/03/25 12:25:08;;;;;;;2.20;1.03;;;12.70;99.90;;;;;;5055163;28;20860;-68
2023/03/25 12:27:46;;;;;;;1.97;1.00;;;12.80;99.90;;;;;;5054747;28;20839;-69
2023/03/25 12:30:27;;;;;;;1.57;0.90;;;12.80;99.90;;;;;;5055163;28;20435;-69
2023/03/25 12:33:04;;;;;;;1.20;0.73;;;12.70;99.90;;;;;;5054757;28;20744;-69
2023/03/25 12:35:39;;;;;;;1.50;1.10;;;12.60;99.90;;;;;;5054675;28;20888;-68
2023/03/25 12:38:22;;;;;;;2.33;0.90;;;12.90;99.90;;;;;;5055269;28;20821;-68
2023/03/25 12:41:13;;;;;;;1.80;1.10;;;13.00;99.90;;;;;;5054244;28;20530;-67
2023/03/25 12:43:51;;;;;;;1.40;0.70;;;13.20;99.90;;;;;;5054418;28;20785;-68
2023/03/25 12:46:35;;;;;;;1.70;0.90;;;13.00;99.90;;;;;;5054760;28;20439;-68
2023/03/25 12:49:16;;;;;;;1.57;0.93;;;12.90;99.90;;;;;;5054913;28;20443;-68
2023/03/25 12:51:53;;;;;;;1.33;0.70;;;12.80;99.90;;;;;;5055305;28;20443;-68
2023/03/25 12:54:37;;;;;;;1.20;0.70;;;13.10;99.90;;;;;;5055702;28;20779;-68
2023/03/25 12:57:17;;;;;;;1.07;0.67;;;14.30;99.90;;;;;;5055170;28;20447;-68
2023/03/25 13:00:01;;;;;;;1.20;0.70;;;14.80;99.90;;;;;;5054684;28;20477;-70
2023/03/25 13:02:43;;;;;;;1.23;0.70;;;14.20;99.90;;;;;;5055283;28;20445;-68
2023/03/25 13:05:21;;;;;;;2.63;0.80;;;13.90;99.90;;;;;;5055244;28;20443;-69
2023/03/25 13:07:53;;;;;;;1.27;0.70;;;13.10;99.90;;;;;;5055306;28;20525;-67
2023/03/25 13:10:22;;;;;;;2.67;0.70;;;12.70;99.90;;;;;;5055665;28;20923;-68
2023/03/25 13:12:52;;;;;;;1.73;0.70;;;12.50;99.90;;;;;;5055582;28;20493;-68